Arion, Iowa
Current Conditions -  °F | °C
As of 5:15 AM on Thursday 23 Oct 2014 (Local Time) from KDNS Reporting Station
Haze Haze  
Wind Chill: 57°   Ceiling: 1000
Heat Index: 57°   Visibility: 3mi
Dew Point: 57°   Wind: 6mph
Humidity: 100%   Direction: 180°S
Pressure: 30"   Gusts: 13mph
Location:  41.95°N, 95.46°W
Report Text: KDNS 231015Z AUTO 18005G11KT 3SM BR SCT004 BKN010 OVC016 14/14 A3000 RMK AO2
Loading
Personal Weather Stations






























Interactive Weather Map
Tropical Storm Tracking
New forecast layout! Learn more

10-Day Weather Forecast

Advertisements
Track Severe Weather on mobile